createdAt,value
2018-01-01T00:01:15.010Z,16.53
2018-01-01T00:03:42.406Z,11.10
2018-01-01T00:06:09.811Z,19.00
2018-01-01T00:08:37.202Z,22.90
2018-01-01T00:11:04.711Z,24.73
2018-01-01T00:13:32.106Z,24.53
2018-01-01T00:15:59.525Z,26.17
2018-01-01T00:18:26.918Z,27.90
2018-01-01T00:20:55.121Z,18.20
2018-01-01T00:23:23.321Z,20.90
2018-01-01T00:25:50.726Z,18.13
2018-01-01T00:28:18.122Z,21.07
2018-01-01T00:30:45.526Z,28.60
2018-01-01T00:33:12.918Z,24.33
2018-01-01T00:35:40.415Z,15.47
2018-01-01T00:38:07.811Z,14.43
2018-01-01T00:40:35.228Z,15.53
2018-01-01T00:43:02.614Z,14.20
2018-01-01T00:45:30.008Z,13.40
2018-01-01T00:47:57.408Z,11.53
2018-01-01T00:50:24.814Z,10.23
2018-01-01T00:52:52.190Z,9.67
2018-01-01T00:55:19.587Z,7.50
2018-01-01T00:57:46.974Z,9.73
2018-01-01T01:00:14.458Z,13.00
2018-01-01T01:02:41.842Z,7.20
2018-01-01T01:05:09.262Z,11.77
2018-01-01T01:07:36.646Z,9.37
2018-01-01T01:10:04.042Z,7.63
2018-01-01T01:12:31.474Z,7.30
2018-01-01T01:14:58.880Z,10.80
2018-01-01T01:17:26.270Z,11.50
2018-01-01T01:19:53.670Z,7.83
2018-01-01T01:22:21.203Z,11.30
2018-01-01T01:24:48.594Z,9.30
2018-01-01T01:27:16.380Z,13.90
2018-01-01T01:29:43.775Z,9.67
2018-01-01T01:32:11.184Z,10.47
2018-01-01T01:34:38.586Z,14.40
2018-01-01T01:37:05.978Z,11.80
2018-01-01T01:39:33.598Z,16.00
2018-01-01T01:42:01.086Z,10.80
2018-01-01T01:44:28.598Z,11.20
2018-01-01T01:46:55.991Z,12.97
2018-01-01T01:49:23.432Z,14.23
2018-01-01T01:51:50.824Z,15.60
2018-01-01T01:54:18.210Z,15.27
2018-01-01T01:56:45.614Z,14.23
2018-01-01T01:59:13.005Z,15.53
2018-01-01T02:01:40.398Z,12.50
2018-01-01T02:04:07.790Z,11.10
2018-01-01T02:06:35.183Z,13.00
2018-01-01T02:09:02.574Z,17.83
2018-01-01T02:11:29.978Z,11.37
2018-01-01T02:13:57.357Z,9.47
2018-01-01T02:16:24.770Z,11.70
2018-01-01T02:18:52.146Z,7.97
2018-01-01T02:21:19.543Z,15.90
2018-01-01T02:23:46.938Z,15.27
2018-01-01T02:26:14.330Z,10.07
2018-01-01T02:28:41.730Z,11.07
2018-01-01T02:31:09.228Z,10.60
2018-01-01T02:33:36.617Z,17.50
2018-01-01T02:36:04.003Z,12.40
2018-01-01T02:38:31.398Z,12.40
2018-01-01T02:40:58.784Z,8.53
2018-01-01T02:43:26.171Z,15.43
2018-01-01T02:45:53.563Z,12.90
2018-01-01T02:48:20.947Z,16.50
2018-01-01T02:50:48.338Z,12.70
2018-01-01T02:53:15.818Z,15.50
2018-01-01T02:55:43.205Z,12.93
2018-01-01T02:58:10.586Z,12.03
2018-01-01T03:00:38.090Z,16.13
2018-01-01T03:03:05.481Z,9.30
2018-01-01T03:05:32.909Z,14.07
2018-01-01T03:08:00.286Z,12.83
2018-01-01T03:10:27.690Z,15.73
2018-01-01T03:12:55.167Z,9.87
2018-01-01T03:15:22.576Z,8.93
2018-01-01T03:17:49.978Z,16.33
2018-01-01T03:20:17.373Z,13.43
2018-01-01T03:22:44.757Z,14.17
2018-01-01T03:25:12.161Z,12.77
2018-01-01T03:27:39.594Z,13.33
2018-01-01T03:30:06.983Z,23.13
2018-01-01T03:32:34.374Z,13.50
2018-01-01T03:35:02.035Z,21.50
2018-01-01T03:37:29.426Z,14.50
2018-01-01T03:39:56.820Z,17.93
2018-01-01T03:42:24.203Z,18.67
2018-01-01T03:44:51.589Z,15.10
2018-01-01T03:47:18.988Z,13.27
2018-01-01T03:49:46.383Z,13.97
2018-01-01T03:52:13.783Z,23.63
2018-01-01T03:54:41.223Z,16.83
2018-01-01T03:57:08.602Z,8.20
2018-01-01T03:59:35.984Z,15.53
2018-01-01T04:02:03.379Z,16.40
2018-01-01T04:04:31.389Z,13.53
2018-01-01T04:06:58.783Z,24.33
2018-01-01T04:09:26.186Z,21.53
2018-01-01T04:11:53.582Z,14.87
2018-01-01T04:14:20.970Z,15.63
2018-01-01T04:16:48.377Z,16.67
2018-01-01T04:19:15.754Z,16.30
2018-01-01T04:21:43.155Z,15.80
2018-01-01T04:24:10.594Z,16.00
2018-01-01T04:26:38.004Z,11.70
2018-01-01T04:29:05.384Z,16.23
2018-01-01T04:31:32.870Z,17.10
2018-01-01T04:34:00.286Z,20.13
2018-01-01T04:36:27.686Z,16.77
2018-01-01T04:38:55.088Z,22.77
2018-01-01T04:41:22.593Z,18.20
2018-01-01T04:43:49.994Z,18.93
2018-01-01T04:46:17.394Z,44.80
2018-01-01T04:48:44.785Z,22.07
2018-01-01T04:51:12.186Z,21.57
2018-01-01T04:53:39.588Z,16.07
2018-01-01T04:56:06.984Z,16.53
2018-01-01T04:58:34.358Z,15.93
2018-01-01T05:01:01.750Z,17.25
2018-01-01T05:03:29.137Z,14.63
2018-01-01T05:05:56.530Z,16.90
2018-01-01T05:08:23.918Z,14.63
2018-01-01T05:10:51.306Z,12.50
2018-01-01T05:13:18.686Z,10.27
2018-01-01T05:15:46.154Z,9.03
2018-01-01T05:18:13.546Z,5.93
2018-01-01T05:20:40.937Z,12.27
2018-01-01T05:23:08.317Z,5.57
2018-01-01T05:25:35.708Z,9.43
2018-01-01T05:28:03.095Z,15.03
2018-01-01T05:30:30.482Z,7.20
2018-01-01T05:32:57.894Z,11.93
2018-01-01T05:35:25.276Z,8.30
2018-01-01T05:37:52.663Z,7.10
2018-01-01T05:40:20.100Z,7.80
2018-01-01T05:42:47.507Z,7.70
2018-01-01T05:45:14.995Z,5.73
2018-01-01T05:47:42.454Z,3.53
2018-01-01T05:50:09.926Z,2.73
2018-01-01T05:52:37.315Z,7.90
2018-01-01T05:55:04.707Z,4.50
2018-01-01T05:57:32.099Z,6.27
2018-01-01T05:59:59.474Z,3.03
2018-01-01T06:02:26.867Z,3.30
2018-01-01T06:04:54.249Z,1.60
2018-01-01T06:07:21.635Z,8.43
2018-01-01T06:09:49.014Z,5.80
2018-01-01T06:12:16.438Z,6.00
2018-01-01T06:14:43.819Z,2.43
2018-01-01T06:17:11.210Z,4.23
2018-01-01T06:19:38.591Z,1.70
2018-01-01T06:22:05.986Z,4.20
2018-01-01T06:24:33.366Z,3.70
2018-01-01T06:27:00.757Z,1.80
2018-01-01T06:29:28.134Z,3.70
2018-01-01T06:31:55.544Z,4.33
2018-01-01T06:34:23.038Z,1.60
2018-01-01T06:36:50.428Z,2.00
2018-01-01T06:39:17.810Z,3.70
2018-01-01T06:41:45.201Z,8.63
2018-01-01T06:44:12.578Z,2.33
2018-01-01T06:46:39.976Z,3.17
2018-01-01T06:49:07.365Z,2.80
2018-01-01T06:51:34.758Z,5.63
2018-01-01T06:54:02.163Z,6.10
2018-01-01T06:56:29.544Z,3.87
2018-01-01T06:58:56.931Z,3.53
2018-01-01T07:01:24.321Z,2.33
2018-01-01T07:03:51.722Z,2.43
2018-01-01T07:06:19.105Z,1.77
2018-01-01T07:08:46.590Z,2.30
2018-01-01T07:11:13.976Z,3.00
2018-01-01T07:13:41.402Z,4.23
2018-01-01T07:16:08.782Z,1.33
2018-01-01T07:18:36.169Z,8.33
2018-01-01T07:21:03.550Z,2.00
2018-01-01T07:23:31.027Z,1.00
2018-01-01T07:25:58.406Z,8.83
2018-01-01T07:28:25.831Z,7.83
2018-01-01T07:30:53.216Z,2.40
2018-01-01T07:33:20.606Z,4.33
2018-01-01T07:35:47.982Z,3.10
2018-01-01T07:38:15.375Z,3.70
2018-01-01T07:40:42.806Z,0.73
2018-01-01T07:43:10.209Z,1.07
2018-01-01T07:45:37.597Z,1.70
2018-01-01T07:48:04.987Z,2.70
2018-01-01T07:50:32.369Z,0.70
2018-01-01T07:52:59.759Z,0.90
2018-01-01T07:55:27.138Z,2.53
2018-01-01T07:57:54.534Z,3.80
2018-01-01T08:00:21.917Z,4.80
2018-01-01T08:02:49.322Z,8.07
2018-01-01T08:05:16.700Z,1.33
2018-01-01T08:07:44.099Z,0.90
2018-01-01T08:10:11.574Z,4.17
2018-01-01T08:12:38.968Z,3.53
2018-01-01T08:15:06.346Z,3.20
2018-01-01T08:17:33.834Z,3.53
2018-01-01T08:20:01.206Z,3.50
2018-01-01T08:22:28.595Z,1.37
2018-01-01T08:24:55.978Z,4.23
2018-01-01T08:27:23.381Z,4.23
2018-01-01T08:29:50.750Z,3.90
2018-01-01T08:32:18.180Z,3.50
2018-01-01T08:34:45.568Z,3.53
2018-01-01T08:37:12.950Z,2.20
2018-01-01T08:39:40.422Z,1.77
2018-01-01T08:42:07.809Z,4.10
2018-01-01T08:44:35.223Z,1.93
2018-01-01T08:47:02.583Z,9.37
2018-01-01T08:49:29.974Z,1.97
2018-01-01T08:51:57.407Z,5.50
2018-01-01T08:54:25.173Z,2.83
2018-01-01T08:56:52.551Z,7.50
2018-01-01T08:59:19.948Z,8.23
2018-01-01T09:01:47.322Z,3.10
2018-01-01T09:04:14.726Z,3.70
2018-01-01T09:06:42.113Z,6.27
2018-01-01T09:09:09.597Z,5.33
2018-01-01T09:11:36.992Z,3.37
2018-01-01T09:14:04.383Z,4.23
2018-01-01T09:16:31.870Z,3.57
2018-01-01T09:18:59.267Z,8.47
2018-01-01T09:21:26.650Z,4.27
2018-01-01T09:23:54.038Z,6.27
2018-01-01T09:26:21.422Z,1.60
2018-01-01T09:28:48.816Z,3.87
2018-01-01T09:31:16.197Z,4.83
2018-01-01T09:33:43.596Z,4.63
2018-01-01T09:36:10.974Z,7.83
2018-01-01T09:38:38.361Z,4.13
2018-01-01T09:41:05.744Z,3.83
2018-01-01T09:43:33.126Z,11.87
2018-01-01T09:46:00.507Z,5.30
2018-01-01T09:48:27.898Z,5.70
2018-01-01T09:50:55.282Z,7.40
2018-01-01T09:53:22.675Z,3.77
2018-01-01T09:55:50.062Z,9.03
2018-01-01T09:58:17.450Z,3.73
2018-01-01T10:00:44.830Z,6.00
2018-01-01T10:03:12.212Z,4.77
2018-01-01T10:05:39.594Z,6.07
2018-01-01T10:08:06.982Z,7.17
2018-01-01T10:10:34.365Z,7.60
2018-01-01T10:13:01.755Z,11.27
2018-01-01T10:15:29.638Z,7.83
2018-01-01T10:17:57.077Z,6.53
2018-01-01T10:20:24.420Z,5.57
2018-01-01T10:22:51.846Z,4.77
2018-01-01T10:25:19.236Z,5.70
2018-01-01T10:27:46.614Z,2.50
2018-01-01T10:30:14.012Z,3.87
2018-01-01T10:32:41.386Z,9.40
2018-01-01T10:35:08.778Z,5.03
2018-01-01T10:37:36.163Z,4.90
2018-01-01T10:40:03.553Z,3.67
2018-01-01T10:42:30.926Z,7.60
2018-01-01T10:44:58.310Z,4.03
2018-01-01T10:47:25.698Z,4.57
2018-01-01T10:49:53.087Z,5.03
2018-01-01T10:52:20.474Z,4.30
2018-01-01T10:54:47.882Z,13.37
2018-01-01T10:57:15.263Z,3.00
2018-01-01T10:59:42.682Z,2.40
2018-01-01T11:02:10.070Z,5.20
2018-01-01T11:04:37.464Z,2.40
2018-01-01T11:07:04.843Z,3.93
2018-01-01T11:09:32.228Z,6.23
2018-01-01T11:11:59.607Z,3.43
2018-01-01T11:14:27.022Z,10.40
2018-01-01T11:16:55.356Z,8.43
2018-01-01T11:19:22.738Z,4.87
2018-01-01T11:21:50.119Z,7.77
2018-01-01T11:24:17.511Z,5.83
2018-01-01T11:26:44.894Z,4.67
2018-01-01T11:29:12.287Z,4.60
2018-01-01T11:31:39.662Z,3.65
2018-01-01T11:34:07.070Z,10.77
2018-01-01T11:36:34.450Z,6.60
2018-01-01T11:39:01.894Z,3.80
2018-01-01T11:41:29.274Z,10.30
2018-01-01T11:43:56.662Z,2.30
2018-01-01T11:46:24.050Z,10.23
2018-01-01T11:48:51.442Z,3.53
2018-01-01T11:51:18.822Z,6.47
2018-01-01T11:53:46.214Z,5.17
2018-01-01T11:56:13.682Z,2.70
2018-01-01T11:58:41.066Z,2.30
2018-01-01T12:01:08.451Z,6.87
2018-01-01T12:03:35.826Z,10.60
2018-01-01T12:06:03.239Z,10.50
2018-01-01T12:08:30.623Z,8.07
2018-01-01T12:10:58.039Z,12.23
2018-01-01T12:13:25.487Z,2.30
2018-01-01T12:15:52.855Z,3.33
2018-01-01T12:18:20.308Z,2.50
2018-01-01T12:20:47.669Z,3.30
2018-01-01T12:23:15.038Z,6.33
2018-01-01T12:25:42.434Z,4.80
2018-01-01T12:28:09.826Z,4.00
2018-01-01T12:30:37.219Z,5.10
2018-01-01T12:33:04.619Z,6.13
2018-01-01T12:35:32.007Z,7.10
2018-01-01T12:37:59.387Z,2.60
2018-01-01T12:40:26.874Z,9.53
2018-01-01T12:42:54.312Z,6.53
2018-01-01T12:45:21.690Z,3.33
2018-01-01T12:47:49.073Z,1.77
2018-01-01T12:50:16.475Z,4.87
2018-01-01T12:52:43.842Z,7.00
2018-01-01T12:55:11.229Z,5.77
2018-01-01T12:57:38.615Z,5.83
2018-01-01T13:00:05.998Z,5.50
2018-01-01T13:02:33.391Z,3.63
2018-01-01T13:05:00.785Z,5.30
2018-01-01T13:07:28.162Z,5.27
2018-01-01T13:09:55.547Z,5.67
2018-01-01T13:12:22.929Z,12.13
2018-01-01T13:14:50.442Z,3.63
2018-01-01T13:17:17.826Z,7.20
2018-01-01T13:19:45.214Z,5.77
2018-01-01T13:22:12.592Z,21.17
2018-01-01T13:24:39.986Z,1.90
2018-01-01T13:27:07.386Z,4.70
2018-01-01T13:29:34.759Z,5.13
2018-01-01T13:32:02.150Z,3.70
2018-01-01T13:34:29.538Z,12.03
2018-01-01T13:36:56.918Z,2.60
2018-01-01T13:39:24.346Z,2.73
2018-01-01T13:41:51.722Z,3.30
2018-01-01T13:44:19.143Z,3.47
2018-01-01T13:46:46.522Z,3.37
2018-01-01T13:49:13.898Z,8.57
2018-01-01T13:51:41.294Z,5.00
2018-01-01T13:54:08.674Z,5.50
2018-01-01T13:56:36.066Z,17.47
2018-01-01T13:59:03.437Z,4.00
2018-01-01T14:01:31.671Z,9.83
2018-01-01T14:03:59.058Z,4.30
2018-01-01T14:06:26.446Z,4.83
2018-01-01T14:08:53.863Z,3.63
2018-01-01T14:11:21.210Z,2.00
2018-01-01T14:13:48.686Z,4.67
2018-01-01T14:16:16.080Z,6.63
2018-01-01T14:18:43.461Z,2.30
2018-01-01T14:21:10.875Z,3.63
2018-01-01T14:23:38.293Z,4.80
2018-01-01T14:26:05.662Z,4.30
2018-01-01T14:28:33.047Z,2.00
2018-01-01T14:31:00.441Z,4.67
2018-01-01T14:33:27.814Z,9.13
2018-01-01T14:35:55.281Z,3.70
2018-01-01T14:38:22.671Z,3.30
2018-01-01T14:40:50.110Z,8.30
2018-01-01T14:43:17.470Z,4.43
2018-01-01T14:45:44.907Z,3.93
2018-01-01T14:48:12.282Z,2.40
2018-01-01T14:50:39.690Z,5.03
2018-01-01T14:53:07.074Z,15.43
2018-01-01T14:55:34.471Z,7.60
2018-01-01T14:58:01.851Z,2.67
2018-01-01T15:00:29.339Z,1.60
2018-01-01T15:02:56.754Z,3.47
2018-01-01T15:05:24.147Z,5.20
2018-01-01T15:07:51.527Z,3.70
2018-01-01T15:10:18.918Z,5.30
2018-01-01T15:12:46.298Z,5.03
2018-01-01T15:15:13.688Z,1.93
2018-01-01T15:17:41.058Z,7.03
2018-01-01T15:20:08.454Z,3.93
2018-01-01T15:22:35.848Z,5.27
2018-01-01T15:25:03.218Z,9.40
2018-01-01T15:27:30.614Z,5.20
2018-01-01T15:29:57.990Z,7.10
2018-01-01T15:32:25.383Z,11.00
2018-01-01T15:34:52.764Z,7.70
2018-01-01T15:37:20.167Z,11.67
2018-01-01T15:39:47.546Z,7.07
2018-01-01T15:42:14.938Z,5.13
2018-01-01T15:44:42.369Z,3.70
2018-01-01T15:47:09.719Z,9.77
2018-01-01T15:49:37.102Z,13.60
2018-01-01T15:52:04.515Z,27.07
2018-01-01T15:54:31.914Z,10.37
2018-01-01T15:56:59.306Z,5.90
2018-01-01T15:59:26.698Z,9.63
2018-01-01T16:01:54.098Z,7.23
2018-01-01T16:04:21.574Z,13.13
2018-01-01T16:06:48.961Z,9.63
2018-01-01T16:09:16.343Z,6.47
2018-01-01T16:11:43.898Z,3.83
2018-01-01T16:14:11.275Z,6.03
2018-01-01T16:16:38.669Z,6.90
2018-01-01T16:19:06.040Z,7.70
2018-01-01T16:21:33.426Z,8.67
2018-01-01T16:24:00.820Z,13.50
2018-01-01T16:26:28.214Z,46.10
2018-01-01T16:28:55.589Z,6.13
2018-01-01T16:31:22.994Z,21.50
2018-01-01T16:33:50.370Z,8.63
2018-01-01T16:36:17.772Z,16.80
2018-01-01T16:38:45.156Z,13.53
2018-01-01T16:41:12.558Z,10.70
2018-01-01T16:43:40.087Z,11.40
2018-01-01T16:46:07.465Z,7.00
2018-01-01T16:48:34.846Z,7.50
2018-01-01T16:51:02.246Z,5.07
2018-01-01T16:53:29.648Z,6.93
2018-01-01T16:55:57.034Z,5.53
2018-01-01T16:58:24.424Z,4.47
2018-01-01T17:00:51.811Z,9.17
2018-01-01T17:03:19.193Z,5.23
2018-01-01T17:05:46.589Z,5.53
2018-01-01T17:08:13.990Z,16.37
2018-01-01T17:10:41.389Z,7.20
2018-01-01T17:13:08.809Z,21.93
2018-01-01T17:15:36.198Z,12.80
2018-01-01T17:18:03.592Z,10.87
2018-01-01T17:20:30.978Z,9.00
2018-01-01T17:22:58.371Z,7.60
2018-01-01T17:25:25.752Z,14.00
2018-01-01T17:27:53.147Z,17.20
2018-01-01T17:30:20.530Z,10.30
2018-01-01T17:32:47.920Z,8.67
2018-01-01T17:35:15.302Z,12.27
2018-01-01T17:37:42.694Z,9.00
2018-01-01T17:40:10.075Z,9.60
2018-01-01T17:42:37.498Z,11.83
2018-01-01T17:45:04.927Z,6.63
2018-01-01T17:47:32.267Z,8.03
2018-01-01T17:49:59.650Z,13.43
2018-01-01T17:52:27.034Z,7.07
2018-01-01T17:54:54.418Z,9.30
2018-01-01T17:57:21.802Z,3.80
2018-01-01T17:59:49.182Z,8.90
2018-01-01T18:02:16.586Z,8.43
2018-01-01T18:04:43.954Z,4.77
2018-01-01T18:07:11.346Z,10.03
2018-01-01T18:09:38.735Z,13.33
2018-01-01T18:12:06.122Z,5.30
2018-01-01T18:14:33.509Z,4.60
2018-01-01T18:17:00.901Z,10.87
2018-01-01T18:19:28.282Z,7.50
2018-01-01T18:21:55.671Z,6.10
2018-01-01T18:24:23.062Z,14.73
2018-01-01T18:26:50.465Z,8.20
2018-01-01T18:29:17.843Z,6.00
2018-01-01T18:31:45.241Z,19.20
2018-01-01T18:34:12.622Z,9.17
2018-01-01T18:36:40.009Z,14.93
2018-01-01T18:39:07.390Z,9.50
2018-01-01T18:41:34.779Z,8.43
2018-01-01T18:44:02.153Z,15.37
2018-01-01T18:46:29.546Z,18.07
2018-01-01T18:48:56.947Z,14.33
2018-01-01T18:51:24.358Z,14.07
2018-01-01T18:53:51.722Z,7.37
2018-01-01T18:56:19.118Z,15.60
2018-01-01T18:58:46.530Z,16.63
2018-01-01T19:01:13.926Z,17.77
2018-01-01T19:03:41.318Z,12.70
2018-01-01T19:06:08.708Z,21.30
2018-01-01T19:08:36.108Z,16.10
2018-01-01T19:11:03.490Z,13.00
2018-01-01T19:13:30.873Z,8.43
2018-01-01T19:15:58.270Z,10.23
2018-01-01T19:20:56.647Z,6.10
2018-01-01T19:23:24.034Z,14.90
2018-01-01T19:25:51.548Z,16.00
2018-01-01T19:28:18.930Z,12.40
2018-01-01T19:30:46.331Z,14.00
2018-01-01T19:33:13.737Z,17.63
2018-01-01T19:35:41.118Z,16.80
2018-01-01T19:38:08.526Z,12.97
2018-01-01T19:40:35.914Z,14.17
2018-01-01T19:43:03.326Z,7.93
2018-01-01T19:45:30.760Z,12.80
2018-01-01T19:47:58.162Z,16.20
2018-01-01T19:50:25.569Z,13.40
2018-01-01T19:52:52.967Z,14.03
2018-01-01T19:55:20.354Z,16.10
2018-01-01T19:57:47.735Z,13.90
2018-01-01T20:00:15.129Z,19.00
2018-01-01T20:02:42.835Z,12.00
2018-01-01T20:05:10.253Z,22.20
2018-01-01T20:07:37.638Z,26.40
2018-01-01T20:10:05.050Z,13.27
2018-01-01T20:12:32.455Z,10.70
2018-01-01T20:14:59.847Z,12.03
2018-01-01T20:17:27.237Z,11.20
2018-01-01T20:19:54.626Z,13.67
2018-01-01T20:22:22.018Z,9.23
2018-01-01T20:24:49.410Z,17.50
2018-01-01T20:27:16.790Z,13.17
2018-01-01T20:29:44.206Z,17.63
2018-01-01T20:32:11.592Z,13.80
2018-01-01T20:34:39.061Z,12.93
2018-01-01T20:37:06.446Z,12.93
2018-01-01T20:39:33.836Z,23.13
2018-01-01T20:42:01.218Z,15.10
2018-01-01T20:44:29.654Z,9.63
2018-01-01T20:46:57.035Z,13.40
2018-01-01T20:49:24.476Z,12.73
2018-01-01T20:51:51.868Z,10.70
2018-01-01T20:54:19.264Z,14.40
2018-01-01T20:56:46.655Z,6.83
2018-01-01T20:59:14.039Z,13.93
2018-01-01T21:01:41.443Z,9.00
2018-01-01T21:04:08.830Z,11.90
2018-01-01T21:06:36.222Z,17.20
2018-01-01T21:09:03.622Z,14.90
2018-01-01T21:11:31.106Z,9.47
2018-01-01T21:13:58.506Z,12.77
2018-01-01T21:16:25.918Z,9.63
2018-01-01T21:18:53.302Z,14.00
2018-01-01T21:21:20.686Z,7.47
2018-01-01T21:23:48.072Z,8.37
2018-01-01T21:26:15.462Z,13.10
2018-01-01T21:28:42.850Z,11.53
2018-01-01T21:31:10.243Z,11.40
2018-01-01T21:33:37.623Z,8.43
2018-01-01T21:36:05.011Z,12.20
2018-01-01T21:38:32.404Z,11.73
2018-01-01T21:40:59.807Z,13.03
2018-01-01T21:43:28.135Z,12.30
2018-01-01T21:45:55.518Z,15.80
2018-01-01T21:48:22.912Z,19.30
2018-01-01T21:50:50.303Z,10.47
2018-01-01T21:53:17.702Z,18.77
2018-01-01T21:55:45.092Z,12.47
2018-01-01T21:58:12.470Z,13.40
2018-01-01T22:00:39.866Z,12.60
2018-01-01T22:03:07.254Z,8.87
2018-01-01T22:05:34.671Z,7.70
2018-01-01T22:08:02.088Z,9.90
2018-01-01T22:10:29.455Z,11.63
2018-01-01T22:12:56.833Z,8.13
2018-01-01T22:15:24.211Z,7.03
2018-01-01T22:17:51.597Z,9.87
2018-01-01T22:20:18.971Z,7.13
2018-01-01T22:22:46.367Z,8.43
2018-01-01T22:25:13.782Z,8.50
2018-01-01T22:27:41.173Z,7.60
2018-01-01T22:30:08.558Z,8.40
2018-01-01T22:32:35.942Z,7.53
2018-01-01T22:35:03.327Z,7.07
2018-01-01T22:37:31.243Z,6.33
2018-01-01T22:39:58.622Z,7.30
2018-01-01T22:42:26.022Z,9.17
2018-01-01T22:44:53.424Z,9.33
2018-01-01T22:47:20.815Z,7.37
2018-01-01T22:49:48.242Z,6.20
2018-01-01T22:52:15.630Z,6.90
2018-01-01T22:54:43.018Z,15.03
2018-01-01T22:57:10.406Z,7.27
2018-01-01T22:59:37.858Z,10.33
2018-01-01T23:02:05.244Z,5.23
2018-01-01T23:04:32.625Z,14.37
2018-01-01T23:07:00.023Z,14.47
2018-01-01T23:09:27.421Z,5.50
2018-01-01T23:11:54.834Z,9.53
2018-01-01T23:14:22.222Z,15.20
2018-01-01T23:16:49.610Z,16.07
2018-01-01T23:19:17.100Z,11.53
2018-01-01T23:21:44.532Z,14.40
2018-01-01T23:24:11.911Z,20.13
2018-01-01T23:26:39.310Z,14.40
2018-01-01T23:29:06.692Z,16.60
2018-01-01T23:31:34.081Z,15.50
2018-01-01T23:34:01.470Z,10.53
2018-01-01T23:36:28.857Z,15.90
2018-01-01T23:38:56.246Z,10.47
2018-01-01T23:41:23.628Z,8.50
2018-01-01T23:43:51.020Z,7.90
2018-01-01T23:46:18.414Z,10.73
2018-01-01T23:48:45.803Z,6.33
2018-01-01T23:51:13.225Z,8.00
2018-01-01T23:53:40.623Z,8.70
2018-01-01T23:56:08.002Z,12.70
2018-01-01T23:58:35.394Z,5.33
